Time;durP1;ratioP1;P1;durP2;ratioP2;P2;SDS_P1;SDS_P2;PMS_P1;PMS_P2;Temp;Humidity;BMP_temperature;BMP_pressure;BME280_temperature;BME280_humidity;BME280_pressure;Samples;Min_cycle;Max_cycle;Signal;HPM_P1;HPM_P2
2024/03/26 00:00:32;;;;;;;4.87;2.90;;;9.60;99.90;;;;;;5050582;28;20179;-86
2024/03/26 00:02:58;;;;;;;5.87;2.90;;;9.70;99.90;;;;;;5050210;28;20703;-83
2024/03/26 00:05:24;;;;;;;7.20;3.03;;;9.70;99.90;;;;;;5050397;28;20240;-83
2024/03/26 00:07:50;;;;;;;9.77;3.20;;;9.60;99.90;;;;;;5018776;28;20197;-84
2024/03/26 00:10:15;;;;;;;5.37;3.17;;;9.60;99.90;;;;;;5017694;28;20178;-84
2024/03/26 00:12:41;;;;;;;6.77;2.70;;;9.60;99.90;;;;;;5050081;28;20217;-84
2024/03/26 00:15:07;;;;;;;6.17;3.10;;;9.60;99.90;;;;;;5017774;28;20530;-84
2024/03/26 00:17:33;;;;;;;6.47;2.90;;;9.60;99.90;;;;;;5016292;28;20171;-83
2024/03/26 00:19:58;;;;;;;4.90;2.50;;;9.60;99.90;;;;;;5016684;28;20720;-85
2024/03/26 00:22:25;;;;;;;4.63;2.63;;;9.50;99.90;;;;;;5017708;28;20685;-85
2024/03/26 00:24:50;;;;;;;5.57;2.67;;;9.50;99.90;;;;;;5049329;28;20232;-83
2024/03/26 00:27:17;;;;;;;4.10;2.63;;;9.40;99.90;;;;;;5049186;28;20619;-83
2024/03/26 00:29:43;;;;;;;5.10;2.90;;;9.50;99.90;;;;;;5017216;28;20234;-84
2024/03/26 00:32:08;;;;;;;9.60;3.20;;;9.40;99.90;;;;;;5050941;28;20228;-85
2024/03/26 00:34:34;;;;;;;6.23;3.00;;;9.50;99.90;;;;;;5018272;28;20182;-83
2024/03/26 00:37:00;;;;;;;5.87;2.87;;;9.50;99.90;;;;;;5018585;28;20162;-84
2024/03/26 00:39:25;;;;;;;5.80;2.93;;;9.60;99.90;;;;;;5018608;28;20254;-83
2024/03/26 00:41:51;;;;;;;6.40;2.90;;;9.60;99.90;;;;;;5016770;28;20174;-84
2024/03/26 00:44:17;;;;;;;5.30;2.43;;;9.70;99.90;;;;;;5014907;28;20214;-83
2024/03/26 00:46:43;;;;;;;6.60;3.27;;;9.50;99.90;;;;;;5016296;28;20303;-84
2024/03/26 00:49:08;;;;;;;5.43;2.90;;;9.50;99.90;;;;;;5016053;28;20643;-85
2024/03/26 00:51:35;;;;;;;5.03;2.70;;;9.40;99.90;;;;;;5047966;28;20209;-85
2024/03/26 00:54:01;;;;;;;3.53;2.43;;;9.40;99.90;;;;;;5015112;28;20543;-82
2024/03/26 00:56:27;;;;;;;13.50;3.40;;;9.40;99.90;;;;;;5014874;28;20162;-84
2024/03/26 00:58:52;;;;;;;6.10;2.77;;;9.40;99.90;;;;;;5017210;28;20194;-85
2024/03/26 01:01:18;;;;;;;6.70;3.10;;;9.30;99.90;;;;;;5014429;28;20733;-84
2024/03/26 01:03:43;;;;;;;8.00;3.40;;;9.40;99.90;;;;;;5016940;28;20225;-81
2024/03/26 01:06:10;;;;;;;4.93;3.13;;;9.40;99.90;;;;;;5015774;28;20174;-84
2024/03/26 01:08:36;;;;;;;7.40;3.67;;;9.50;99.90;;;;;;5049866;28;20200;-84
2024/03/26 01:11:02;;;;;;;5.27;2.90;;;9.40;99.90;;;;;;5049878;28;20690;-83
2024/03/26 01:13:28;;;;;;;5.87;3.00;;;9.50;99.90;;;;;;5050201;28;20194;-85
2024/03/26 01:15:55;;;;;;;5.40;2.77;;;9.40;99.90;;;;;;5016539;28;20170;-85
2024/03/26 01:18:23;;;;;;;6.00;3.33;;;9.40;99.90;;;;;;5050378;28;20174;-83
2024/03/26 01:20:49;;;;;;;5.00;2.77;;;9.30;99.90;;;;;;5016761;28;20247;-84
2024/03/26 01:23:14;;;;;;;6.47;3.00;;;9.20;99.90;;;;;;5017401;28;20219;-83
2024/03/26 01:25:40;;;;;;;7.33;3.00;;;9.10;99.90;;;;;;5016349;28;20209;-84
2024/03/26 01:28:06;;;;;;;6.13;2.90;;;9.10;99.90;;;;;;5048457;28;20196;-85
2024/03/26 01:30:31;;;;;;;5.83;3.17;;;9.00;99.90;;;;;;5016434;28;20606;-84
2024/03/26 01:32:57;;;;;;;4.80;2.87;;;9.00;99.90;;;;;;5016025;28;20669;-83
2024/03/26 01:35:24;;;;;;;4.93;2.97;;;9.00;99.90;;;;;;5016634;28;21090;-85
2024/03/26 01:37:49;;;;;;;6.60;2.43;;;9.00;99.90;;;;;;5016062;28;20166;-84
2024/03/26 01:40:15;;;;;;;7.47;3.27;;;9.00;99.90;;;;;;5017607;28;20206;-85
2024/03/26 01:42:41;;;;;;;5.20;3.00;;;9.00;99.90;;;;;;5048792;28;20182;-84
2024/03/26 01:45:08;;;;;;;5.73;3.57;;;9.00;99.90;;;;;;5014930;28;20217;-85
2024/03/26 01:47:38;;;;;;;6.43;3.63;;;9.00;99.90;;;;;;5048064;28;20166;-85
2024/03/26 01:50:10;;;;;;;7.03;3.47;;;9.00;99.90;;;;;;5016915;28;20655;-86
2024/03/26 01:52:36;;;;;;;5.80;3.13;;;8.90;99.90;;;;;;5048488;28;20228;-84
2024/03/26 01:55:02;;;;;;;5.03;2.73;;;8.90;99.90;;;;;;5015672;28;20232;-84
2024/03/26 01:57:29;;;;;;;6.57;3.20;;;8.80;99.90;;;;;;5016949;28;20175;-85
2024/03/26 01:59:55;;;;;;;6.27;3.40;;;8.80;99.90;;;;;;5014139;28;20223;-83
2024/03/26 02:02:21;;;;;;;7.40;3.80;;;8.80;99.90;;;;;;5016342;28;20189;-82
2024/03/26 02:04:47;;;;;;;6.97;3.20;;;8.70;1.00;;;;;;5015308;28;20252;-82
2024/03/26 02:07:14;;;;;;;6.90;2.90;;;8.80;99.90;;;;;;5047887;28;20193;-83
2024/03/26 02:09:41;;;;;;;5.40;2.87;;;8.70;99.90;;;;;;5016800;28;20709;-84
2024/03/26 02:12:06;;;;;;;8.53;3.67;;;8.80;99.90;;;;;;5048749;28;20200;-81
2024/03/26 02:14:32;;;;;;;5.17;3.30;;;8.80;1.00;;;;;;5014282;28;20623;-84
2024/03/26 02:16:58;;;;;;;5.20;3.30;;;8.80;1.00;;;;;;5047292;28;20257;-82
2024/03/26 02:19:26;;;;;;;5.00;2.73;;;8.80;1.00;;;;;;5015305;28;20178;-84
2024/03/26 02:21:52;;;;;;;4.93;3.10;;;8.70;1.00;;;;;;5047757;28;20661;-83
2024/03/26 02:24:18;;;;;;;9.80;3.40;;;8.70;1.00;;;;;;5015973;28;20202;-84
2024/03/26 02:26:43;;;;;;;5.80;3.33;;;8.70;1.00;;;;;;5014422;28;20674;-84
2024/03/26 02:29:09;;;;;;;6.77;3.30;;;8.70;1.00;;;;;;5015850;28;20184;-83
2024/03/26 02:31:35;;;;;;;7.17;3.50;;;8.70;1.00;;;;;;5048010;28;20518;-85
2024/03/26 02:34:00;;;;;;;6.50;3.73;;;8.70;1.00;;;;;;5015264;28;20642;-82
2024/03/26 02:36:26;;;;;;;5.23;3.30;;;8.80;1.00;;;;;;5047595;28;20175;-84
2024/03/26 02:38:53;;;;;;;8.33;3.73;;;8.70;1.00;;;;;;5015754;28;20706;-83
2024/03/26 02:41:19;;;;;;;5.67;3.03;;;8.70;1.00;;;;;;5046900;28;20178;-82
2024/03/26 02:43:49;;;;;;;5.97;3.00;;;8.80;1.00;;;;;;5015484;28;20198;-83
2024/03/26 02:46:14;;;;;;;7.80;3.63;;;8.80;99.90;;;;;;5047168;28;20206;-82
2024/03/26 02:48:40;;;;;;;6.40;3.60;;;8.70;1.00;;;;;;5014644;28;20508;-84
2024/03/26 02:51:06;;;;;;;8.93;3.83;;;8.70;1.00;;;;;;5014256;28;20197;-84
2024/03/26 02:53:31;;;;;;;6.93;3.63;;;8.70;1.00;;;;;;5047677;28;20170;-86
2024/03/26 02:55:57;;;;;;;8.07;3.77;;;8.60;1.00;;;;;;5047023;28;20186;-83
2024/03/26 02:58:22;;;;;;;6.83;3.60;;;8.70;1.00;;;;;;5014089;28;20749;-84
2024/03/26 03:00:48;;;;;;;7.90;4.13;;;8.60;1.00;;;;;;5016105;28;20639;-83
2024/03/26 03:03:14;;;;;;;5.57;3.30;;;8.70;1.00;;;;;;5015682;28;20196;-83
2024/03/26 03:05:41;;;;;;;6.50;3.13;;;8.60;1.00;;;;;;5046840;28;20213;-84
2024/03/26 03:08:07;;;;;;;6.90;3.73;;;8.50;1.00;;;;;;5012813;28;20171;-83
2024/03/26 03:10:33;;;;;;;5.60;3.53;;;8.40;1.00;;;;;;5016176;28;20178;-84
2024/03/26 03:12:58;;;;;;;5.50;3.47;;;8.40;1.00;;;;;;5014399;28;20202;-81
2024/03/26 03:15:24;;;;;;;6.20;3.13;;;8.40;1.00;;;;;;5047064;28;20178;-84
2024/03/26 03:17:50;;;;;;;7.57;4.03;;;8.40;1.00;;;;;;5047178;28;20170;-85
2024/03/26 03:20:16;;;;;;;7.90;3.03;;;8.40;1.00;;;;;;5013756;28;20182;-84
2024/03/26 03:22:44;;;;;;;5.80;3.10;;;8.50;1.00;;;;;;5015329;28;20316;-83
2024/03/26 03:25:10;;;;;;;7.53;3.50;;;8.40;1.00;;;;;;5046149;28;20213;-83
2024/03/26 03:27:36;;;;;;;8.33;2.77;;;8.40;1.00;;;;;;5012938;28;20167;-83
2024/03/26 03:30:02;;;;;;;6.67;3.73;;;8.40;1.00;;;;;;5015623;28;20181;-84
2024/03/26 03:32:28;;;;;;;4.77;3.20;;;8.40;1.00;;;;;;5013918;28;20197;-83
2024/03/26 03:34:54;;;;;;;6.73;3.60;;;8.30;1.00;;;;;;5047200;28;20178;-84
2024/03/26 03:37:20;;;;;;;5.47;3.57;;;8.20;1.00;;;;;;5046623;28;20643;-84
2024/03/26 03:39:46;;;;;;;4.77;3.40;;;8.30;1.00;;;;;;5014162;28;20166;-82
2024/03/26 03:42:11;;;;;;;7.20;3.53;;;8.20;1.00;;;;;;5013217;28;20599;-83
2024/03/26 03:44:37;;;;;;;7.43;3.10;;;8.20;1.00;;;;;;5046340;28;20267;-83
2024/03/26 03:47:03;;;;;;;8.43;3.23;;;8.20;1.00;;;;;;5012062;28;20580;-83
2024/03/26 03:49:29;;;;;;;8.83;3.40;;;8.10;1.00;;;;;;5046406;28;20261;-83
2024/03/26 03:51:56;;;;;;;7.07;3.33;;;8.10;1.00;;;;;;5047706;28;20248;-84
2024/03/26 03:54:23;;;;;;;7.60;2.97;;;8.10;1.00;;;;;;5014060;28;20174;-85
2024/03/26 03:56:49;;;;;;;5.07;3.10;;;8.10;1.00;;;;;;5048718;28;20511;-83
2024/03/26 03:59:14;;;;;;;4.20;3.30;;;8.10;1.00;;;;;;5016956;28;20622;-85
2024/03/26 04:01:40;;;;;;;7.20;3.50;;;8.10;1.00;;;;;;5015485;28;20268;-83
2024/03/26 04:04:06;;;;;;;8.27;3.57;;;8.20;1.00;;;;;;5047934;28;20202;-83
2024/03/26 04:06:33;;;;;;;5.63;3.13;;;8.20;1.00;;;;;;5014658;28;20185;-82
2024/03/26 04:08:59;;;;;;;5.77;3.10;;;8.30;1.00;;;;;;5046907;28;20174;-81
2024/03/26 04:11:25;;;;;;;5.53;3.30;;;8.20;1.00;;;;;;5014723;28;20253;-80
2024/03/26 04:13:51;;;;;;;4.90;2.77;;;8.30;1.00;;;;;;5014687;28;20194;-84
2024/03/26 04:16:16;;;;;;;5.87;3.10;;;8.30;1.00;;;;;;5012947;28;20254;-84
2024/03/26 04:18:42;;;;;;;9.50;3.10;;;8.20;1.00;;;;;;5046157;28;20185;-84
2024/03/26 04:21:08;;;;;;;4.53;3.03;;;8.20;1.00;;;;;;5017340;28;20186;-85
2024/03/26 04:23:33;;;;;;;7.80;3.10;;;8.30;1.00;;;;;;5017383;28;20174;-85
2024/03/26 04:25:59;;;;;;;6.13;3.00;;;8.40;1.00;;;;;;5017210;28;20626;-85
2024/03/26 04:28:27;;;;;;;5.73;3.10;;;8.40;1.00;;;;;;5016738;28;20233;-84
2024/03/26 04:30:53;;;;;;;6.57;3.10;;;8.50;1.00;;;;;;5049919;28;20212;-83
2024/03/26 04:33:19;;;;;;;4.77;2.53;;;8.60;1.00;;;;;;5016939;28;20186;-85
2024/03/26 04:35:46;;;;;;;6.60;2.83;;;8.60;1.00;;;;;;5017979;28;20257;-85
2024/03/26 04:38:12;;;;;;;5.53;2.90;;;8.70;1.00;;;;;;5016469;28;20174;-84
2024/03/26 04:40:38;;;;;;;6.13;3.00;;;8.60;1.00;;;;;;5048707;28;20182;-84
2024/03/26 04:43:05;;;;;;;7.87;3.10;;;8.60;1.00;;;;;;5018443;28;20228;-84
2024/03/26 04:45:31;;;;;;;6.90;2.43;;;8.70;1.00;;;;;;5017557;28;20209;-84
2024/03/26 04:47:56;;;;;;;4.03;2.53;;;8.60;1.00;;;;;;5049431;28;20170;-83
2024/03/26 04:50:22;;;;;;;6.13;3.10;;;8.60;1.00;;;;;;5017819;28;20174;-82
2024/03/26 04:52:48;;;;;;;3.87;2.60;;;8.70;1.00;;;;;;5049069;28;20627;-83
2024/03/26 04:55:13;;;;;;;5.93;2.77;;;8.60;1.00;;;;;;5049764;28;20177;-84
2024/03/26 04:57:39;;;;;;;6.17;2.70;;;8.50;1.00;;;;;;5050812;28;20206;-83
2024/03/26 05:00:07;;;;;;;6.73;2.73;;;8.60;1.00;;;;;;5049433;28;20182;-82
2024/03/26 05:02:33;;;;;;;6.37;2.70;;;8.80;1.00;;;;;;5019029;28;20318;-83
2024/03/26 05:04:59;;;;;;;4.80;2.43;;;8.80;1.00;;;;;;5015895;28;20640;-82
2024/03/26 05:07:24;;;;;;;6.60;2.63;;;8.60;1.00;;;;;;5017051;28;20171;-82
2024/03/26 05:09:50;;;;;;;4.33;2.60;;;8.50;1.00;;;;;;5015919;28;20177;-83
2024/03/26 05:12:15;;;;;;;6.37;2.67;;;8.50;1.00;;;;;;5016230;28;20631;-84
2024/03/26 05:14:41;;;;;;;6.60;3.30;;;8.50;1.00;;;;;;5015386;28;20178;-84
2024/03/26 05:17:07;;;;;;;6.93;3.43;;;8.40;1.00;;;;;;5047917;28;20631;-83
2024/03/26 05:19:32;;;;;;;10.57;3.47;;;8.50;1.00;;;;;;5014086;28;20178;-83
2024/03/26 05:21:58;;;;;;;6.37;3.47;;;8.30;1.00;;;;;;5016505;28;20182;-83
2024/03/26 05:24:24;;;;;;;13.67;3.50;;;8.20;1.00;;;;;;5015051;28;20585;-82
2024/03/26 05:26:49;;;;;;;8.20;3.37;;;8.10;1.00;;;;;;5048388;28;20177;-84
2024/03/26 05:29:18;;;;;;;5.13;3.00;;;8.20;1.00;;;;;;5015236;28;20162;-82
2024/03/26 05:31:44;;;;;;;7.87;3.50;;;8.20;1.00;;;;;;5048174;28;20213;-81
2024/03/26 05:34:09;;;;;;;8.80;3.77;;;8.20;1.00;;;;;;5016658;28;20233;-82
2024/03/26 05:36:35;;;;;;;7.10;4.47;;;8.20;1.00;;;;;;5014873;28;20653;-84
2024/03/26 05:39:01;;;;;;;10.00;4.40;;;8.30;1.00;;;;;;5016228;28;20459;-84
2024/03/26 05:41:27;;;;;;;6.40;3.37;;;8.30;1.00;;;;;;5017391;28;20502;-84
2024/03/26 05:43:53;;;;;;;8.40;3.60;;;8.50;1.00;;;;;;5015567;28;20233;-83
2024/03/26 05:46:19;;;;;;;8.33;3.63;;;8.40;1.00;;;;;;5015508;28;20643;-83
2024/03/26 05:48:45;;;;;;;7.17;3.60;;;8.50;1.00;;;;;;5016766;28;20175;-82
2024/03/26 05:51:11;;;;;;;10.27;3.90;;;8.60;1.00;;;;;;5014051;28;20186;-86
2024/03/26 05:53:37;;;;;;;8.50;3.60;;;8.70;1.00;;;;;;5016186;28;20170;-84
2024/03/26 05:56:03;;;;;;;8.40;4.00;;;8.70;1.00;;;;;;5046305;28;20264;-83
2024/03/26 05:58:28;;;;;;;8.70;3.73;;;8.50;1.00;;;;;;5046601;28;20189;-82
2024/03/26 06:00:54;;;;;;;10.17;4.30;;;8.50;1.00;;;;;;5016575;28;20511;-83
2024/03/26 06:03:20;;;;;;;12.37;4.20;;;8.40;1.00;;;;;;5016218;28;20714;-83
2024/03/26 06:05:46;;;;;;;8.43;4.23;;;8.40;1.00;;;;;;5047600;28;20543;-85
2024/03/26 06:08:11;;;;;;;8.50;3.60;;;8.50;1.00;;;;;;5014342;28;20631;-83
2024/03/26 06:10:37;;;;;;;8.80;4.00;;;8.50;1.00;;;;;;5016362;28;20170;-84
2024/03/26 06:13:03;;;;;;;11.03;4.27;;;8.50;1.00;;;;;;5015476;28;20277;-84
2024/03/26 06:15:28;;;;;;;13.93;4.00;;;8.40;1.00;;;;;;5031057;28;20188;-83
2024/03/26 06:17:54;;;;;;;8.80;4.20;;;8.30;1.00;;;;;;5015830;28;20257;-84
2024/03/26 06:20:20;;;;;;;16.90;4.60;;;8.30;1.00;;;;;;5015318;28;20635;-84
2024/03/26 06:22:46;;;;;;;10.83;3.80;;;8.10;1.00;;;;;;5047119;28;20261;-83
2024/03/26 06:25:12;;;;;;;12.13;4.30;;;8.20;1.00;;;;;;5013754;28;20213;-83
2024/03/26 06:27:38;;;;;;;10.13;4.10;;;8.30;1.00;;;;;;5014707;28;20174;-85
2024/03/26 06:30:04;;;;;;;10.37;4.10;;;8.40;1.00;;;;;;5014004;28;20217;-82
2024/03/26 06:32:30;;;;;;;13.97;4.40;;;8.50;1.00;;;;;;5012773;28;20570;-84
2024/03/26 06:34:56;;;;;;;10.40;3.60;;;8.80;1.00;;;;;;5045423;28;20190;-82
2024/03/26 06:37:21;;;;;;;7.27;3.53;;;9.00;1.00;;;;;;5013788;28;20209;-84
2024/03/26 06:39:47;;;;;;;12.23;5.83;;;9.20;1.00;;;;;;5012949;28;20178;-82
2024/03/26 06:42:13;;;;;;;6.13;4.23;;;9.20;1.00;;;;;;5012811;28;20173;-84
2024/03/26 06:44:39;;;;;;;8.43;3.87;;;9.20;1.00;;;;;;5013563;28;20273;-83
2024/03/26 06:47:04;;;;;;;7.87;3.70;;;9.20;1.00;;;;;;5045590;28;20179;-84
2024/03/26 06:49:30;;;;;;;6.60;3.17;;;9.30;1.00;;;;;;5013975;28;20632;-83
2024/03/26 06:51:56;;;;;;;6.63;2.70;;;9.40;1.00;;;;;;5045907;28;20590;-84
2024/03/26 06:54:22;;;;;;;6.27;2.73;;;9.60;1.00;;;;;;5014030;28;20674;-84
2024/03/26 06:56:48;;;;;;;6.83;3.13;;;9.60;1.00;;;;;;5045498;28;20284;-87
2024/03/26 06:59:14;;;;;;;5.13;2.77;;;9.60;99.90;;;;;;5013728;28;20177;-82
2024/03/26 07:01:40;;;;;;;6.40;3.10;;;9.70;1.00;;;;;;5014151;28;20501;-85
2024/03/26 07:04:05;;;;;;;4.90;2.60;;;9.80;99.90;;;;;;5011921;28;20221;-84
2024/03/26 07:06:31;;;;;;;6.73;2.50;;;9.80;99.90;;;;;;5045469;28;20174;-86
2024/03/26 07:08:57;;;;;;;7.07;2.93;;;9.90;99.90;;;;;;5013287;28;20268;-84
2024/03/26 07:11:23;;;;;;;5.80;2.70;;;10.00;99.90;;;;;;5045773;28;20666;-82
2024/03/26 07:13:49;;;;;;;6.03;2.73;;;10.00;99.90;;;;;;5014688;28;20190;-84
2024/03/26 07:16:15;;;;;;;6.10;3.00;;;10.20;99.90;;;;;;5012189;28;20709;-85
2024/03/26 07:18:41;;;;;;;4.27;2.63;;;10.20;99.90;;;;;;5012050;28;20183;-85
2024/03/26 07:21:06;;;;;;;5.73;2.60;;;10.40;99.90;;;;;;5012695;28;20178;-87
2024/03/26 07:23:32;;;;;;;6.20;2.50;;;10.50;99.90;;;;;;5013236;28;20218;-84
2024/03/26 07:25:58;;;;;;;5.63;2.20;;;10.50;99.90;;;;;;5014197;28;20878;-86
2024/03/26 07:28:24;;;;;;;5.57;2.60;;;10.70;99.90;;;;;;5013716;28;20205;-83
2024/03/26 07:30:50;;;;;;;5.90;2.80;;;10.80;99.90;;;;;;5013262;28;20663;-84
2024/03/26 07:33:15;;;;;;;8.80;2.77;;;10.80;99.90;;;;;;5013405;28;20287;-85
2024/03/26 07:35:41;;;;;;;7.10;3.00;;;11.00;99.90;;;;;;5014327;28;20194;-85
2024/03/26 07:38:07;;;;;;;6.03;2.73;;;11.10;99.90;;;;;;5015325;28;20538;-82
2024/03/26 07:40:35;;;;;;;6.23;2.60;;;11.20;99.90;;;;;;5015391;28;20185;-83
2024/03/26 07:43:00;;;;;;;5.93;2.20;;;11.30;99.90;;;;;;5015342;28;20569;-85
2024/03/26 07:45:27;;;;;;;5.50;2.87;;;11.40;99.90;;;;;;5046128;28;20202;-85
2024/03/26 07:47:53;;;;;;;8.17;2.80;;;11.50;99.90;;;;;;5011083;28;20171;-89
2024/03/26 07:50:18;;;;;;;4.03;2.40;;;11.60;99.90;;;;;;5011171;28;20228;-84
2024/03/26 07:52:44;;;;;;;6.50;2.30;;;11.60;99.90;;;;;;5013655;28;20178;-84
2024/03/26 07:55:10;;;;;;;6.87;2.63;;;11.70;99.90;;;;;;5016863;28;20257;-83
2024/03/26 07:57:37;;;;;;;10.43;6.30;;;11.50;99.90;;;;;;5049508;28;20200;-83
2024/03/26 08:00:06;;;;;;;14.23;7.97;;;11.30;99.90;;;;;;5016220;28;20209;-85
2024/03/26 08:02:31;;;;;;;8.33;4.80;;;11.30;99.90;;;;;;5014532;28;20186;-82
2024/03/26 08:04:57;;;;;;;8.00;4.57;;;11.20;99.90;;;;;;5015733;28;20284;-82
2024/03/26 08:07:23;;;;;;;6.10;3.50;;;11.10;99.90;;;;;;5016441;28;20170;-83
2024/03/26 08:09:48;;;;;;;6.17;3.30;;;11.10;99.90;;;;;;5016391;28;20332;-85
2024/03/26 08:12:14;;;;;;;6.27;3.43;;;11.10;99.90;;;;;;5017458;28;20191;-80
2024/03/26 08:14:40;;;;;;;6.17;3.43;;;11.20;99.90;;;;;;5015206;28;20286;-83
2024/03/26 08:17:06;;;;;;;7.63;3.80;;;11.20;99.90;;;;;;5017139;28;20198;-83
2024/03/26 08:19:31;;;;;;;9.30;3.80;;;11.30;99.90;;;;;;5017255;28;20277;-83
2024/03/26 08:21:57;;;;;;;8.97;3.57;;;11.30;99.90;;;;;;5016149;28;20537;-83
2024/03/26 08:24:23;;;;;;;6.37;3.37;;;11.30;99.90;;;;;;5015008;28;20200;-85
2024/03/26 08:26:49;;;;;;;7.90;3.07;;;11.40;99.90;;;;;;5016738;28;20174;-84
2024/03/26 08:29:14;;;;;;;8.13;3.00;;;11.30;99.90;;;;;;5016402;28;20244;-84
2024/03/26 08:31:40;;;;;;;6.07;3.10;;;11.20;99.90;;;;;;5015486;28;20176;-85
2024/03/26 08:34:06;;;;;;;7.07;2.80;;;11.30;99.90;;;;;;5017309;28;20250;-81
2024/03/26 08:36:31;;;;;;;7.07;3.20;;;11.30;99.90;;;;;;5016400;28;20263;-82
2024/03/26 08:38:57;;;;;;;8.10;3.93;;;11.30;99.90;;;;;;5014444;28;20201;-82
2024/03/26 08:41:23;;;;;;;7.23;3.23;;;11.30;99.90;;;;;;4996307;28;20260;-87
2024/03/26 08:43:48;;;;;;;6.70;3.37;;;11.40;99.90;;;;;;5028940;28;20171;-83
2024/03/26 08:46:14;;;;;;;9.93;3.33;;;11.50;99.90;;;;;;4997680;28;20657;-84
2024/03/26 08:48:39;;;;;;;8.23;3.23;;;11.40;99.90;;;;;;5028985;28;20636;-82
2024/03/26 08:51:05;;;;;;;7.33;3.23;;;11.40;99.90;;;;;;4995869;28;20520;-84
2024/03/26 08:53:31;;;;;;;7.33;2.97;;;11.60;99.90;;;;;;4997131;28;20199;-82
2024/03/26 08:55:57;;;;;;;6.40;3.10;;;11.70;99.90;;;;;;4996333;28;20257;-85
2024/03/26 08:58:23;;;;;;;8.30;3.30;;;11.80;99.90;;;;;;5003091;28;20600;-84
2024/03/26 09:00:49;;;;;;;6.50;3.30;;;11.80;99.90;;;;;;5016515;28;20179;-84
2024/03/26 09:03:15;;;;;;;7.63;3.00;;;11.90;99.90;;;;;;5048200;28;20230;-83
2024/03/26 09:05:41;;;;;;;8.63;3.17;;;11.80;99.90;;;;;;5047882;28;20329;-84
2024/03/26 09:08:07;;;;;;;6.50;3.23;;;11.80;99.90;;;;;;5015951;28;20221;-84
2024/03/26 09:10:33;;;;;;;6.07;3.03;;;11.70;99.90;;;;;;5016150;28;20171;-85
2024/03/26 09:12:59;;;;;;;6.47;2.60;;;11.80;99.90;;;;;;5016389;28;20195;-86
2024/03/26 09:15:25;;;;;;;7.23;3.43;;;11.90;99.90;;;;;;5017220;28;20183;-84
2024/03/26 09:17:52;;;;;;;8.43;3.60;;;12.00;99.90;;;;;;5018140;28;20597;-82
2024/03/26 09:20:18;;;;;;;6.90;3.10;;;12.10;99.90;;;;;;5048538;28;20680;-83
2024/03/26 09:22:44;;;;;;;6.23;3.27;;;12.00;99.90;;;;;;5016272;28;20271;-84
2024/03/26 09:25:09;;;;;;;7.43;3.37;;;12.10;99.90;;;;;;5015844;28;20207;-85
2024/03/26 09:27:36;;;;;;;6.00;3.40;;;11.90;99.90;;;;;;5046775;28;20631;-81
2024/03/26 09:30:03;;;;;;;10.57;3.57;;;11.80;99.90;;;;;;5016788;28;20717;-83
2024/03/26 09:32:28;;;;;;;6.33;3.83;;;11.80;99.90;;;;;;5015579;28;20211;-81
2024/03/26 09:34:54;;;;;;;8.67;3.20;;;11.80;99.90;;;;;;5048014;28;20194;-82
2024/03/26 09:37:20;;;;;;;6.77;2.93;;;11.90;99.90;;;;;;5048078;28;20557;-83
2024/03/26 09:39:47;;;;;;;7.83;3.40;;;12.00;99.90;;;;;;5048137;28;20171;-83
2024/03/26 09:42:12;;;;;;;7.00;3.57;;;12.00;99.90;;;;;;5047233;28;20178;-84
2024/03/26 09:44:40;;;;;;;8.90;3.63;;;12.10;99.90;;;;;;5047019;28;20217;-82
2024/03/26 09:47:07;;;;;;;6.53;3.40;;;12.30;99.90;;;;;;5015045;28;20170;-83
2024/03/26 09:49:34;;;;;;;7.43;3.30;;;12.40;99.90;;;;;;5014765;28;20187;-83
2024/03/26 09:52:01;;;;;;;7.47;3.23;;;12.50;99.90;;;;;;5013952;28;20170;-84
2024/03/26 09:54:28;;;;;;;5.63;3.03;;;12.50;99.90;;;;;;5015977;28;20172;-85
2024/03/26 09:56:54;;;;;;;8.60;3.47;;;12.50;99.90;;;;;;5047815;28;20170;-85
2024/03/26 09:59:20;;;;;;;6.77;3.03;;;12.40;99.90;;;;;;5047799;28;20258;-82
2024/03/26 10:01:47;;;;;;;7.40;3.83;;;12.50;99.90;;;;;;5015409;28;20202;-83
2024/03/26 10:04:13;;;;;;;7.17;4.20;;;12.60;99.90;;;;;;5015815;28;20286;-86
2024/03/26 10:06:40;;;;;;;7.43;3.23;;;12.70;99.90;;;;;;5015214;28;20613;-84
2024/03/26 10:09:06;;;;;;;6.80;3.10;;;12.70;99.90;;;;;;5045993;28;20167;-84
2024/03/26 10:11:32;;;;;;;11.30;4.00;;;12.90;99.90;;;;;;5045303;28;20544;-81
2024/03/26 10:13:58;;;;;;;5.60;3.30;;;13.10;99.90;;;;;;5011837;28;20196;-82
2024/03/26 10:16:24;;;;;;;6.03;2.50;;;13.10;99.90;;;;;;5012665;28;20266;-84
2024/03/26 10:18:49;;;;;;;7.87;3.30;;;13.20;99.90;;;;;;5012489;28;20269;-82
2024/03/26 10:21:15;;;;;;;6.10;3.00;;;13.00;99.90;;;;;;5013832;28;20170;-82
2024/03/26 10:23:53;;;;;;;11.93;3.90;;;13.00;99.90;;;;;;5013953;28;20316;-85
2024/03/26 10:26:23;;;;;;;9.07;3.50;;;13.00;99.90;;;;;;5046160;28;20183;-84
2024/03/26 10:28:52;;;;;;;5.67;2.90;;;13.10;99.90;;;;;;5014908;28;20174;-82
2024/03/26 10:31:19;;;;;;;6.63;3.10;;;12.90;99.90;;;;;;5013284;28;20182;-83
2024/03/26 10:33:47;;;;;;;5.67;3.27;;;12.90;99.90;;;;;;5014420;28;20270;-82
2024/03/26 10:36:16;;;;;;;6.03;3.47;;;13.10;99.90;;;;;;5013473;28;20174;-84
2024/03/26 10:38:42;;;;;;;8.83;3.47;;;13.10;99.90;;;;;;5045539;28;20268;-83
2024/03/26 10:41:23;;;;;;;5.83;3.10;;;13.30;99.90;;;;;;5045668;28;20210;-84
2024/03/26 10:43:54;;;;;;;7.33;3.13;;;13.50;99.90;;;;;;5046351;28;20176;-86
2024/03/26 10:46:20;;;;;;;6.73;3.27;;;13.60;99.90;;;;;;5013281;28;20242;-83
2024/03/26 10:48:46;;;;;;;7.87;3.27;;;13.70;99.90;;;;;;5045782;28;20173;-82
2024/03/26 10:51:13;;;;;;;8.20;3.13;;;13.90;99.90;;;;;;5013104;28;20622;-82
2024/03/26 10:53:39;;;;;;;6.67;3.23;;;13.90;99.90;;;;;;5046971;28;20213;-83
2024/03/26 10:56:06;;;;;;;8.47;3.33;;;14.10;99.90;;;;;;5049301;28;20183;-83
2024/03/26 10:58:33;;;;;;;7.07;3.53;;;14.30;99.90;;;;;;5046426;28;20178;-82
2024/03/26 11:01:01;;;;;;;8.70;3.40;;;14.20;99.90;;;;;;5046185;28;20178;-83
2024/03/26 11:03:27;;;;;;;7.87;3.70;;;14.10;99.90;;;;;;5013728;28;20233;-84
2024/03/26 11:05:57;;;;;;;7.50;3.70;;;14.10;99.90;;;;;;5045678;28;20667;-84
2024/03/26 11:08:22;;;;;;;6.27;3.40;;;14.20;99.90;;;;;;5045625;28;20651;-84
2024/03/26 11:11:00;;;;;;;6.20;3.80;;;14.30;99.90;;;;;;5011916;28;20202;-84
2024/03/26 11:13:32;;;;;;;8.87;3.73;;;14.60;99.90;;;;;;5010733;28;20190;-85
2024/03/26 11:15:58;;;;;;;9.33;4.20;;;14.90;99.90;;;;;;5012931;28;20185;-85
2024/03/26 11:18:32;;;;;;;10.07;4.40;;;15.10;99.90;;;;;;5012197;28;20166;-83
2024/03/26 11:21:08;;;;;;;7.93;3.63;;;15.00;99.90;;;;;;5011905;28;20660;-82
2024/03/26 11:23:35;;;;;;;8.53;3.30;;;15.20;99.90;;;;;;5011759;28;20178;-84
2024/03/26 11:26:02;;;;;;;6.53;3.70;;;15.20;95.40;;;;;;5012076;28;20693;-83
2024/03/26 11:28:33;;;;;;;6.73;3.70;;;15.10;99.70;;;;;;5011506;28;20183;-85
2024/03/26 11:30:59;;;;;;;5.47;3.20;;;15.00;99.70;;;;;;5012694;28;20252;-85
2024/03/26 11:33:32;;;;;;;6.30;3.27;;;14.80;99.90;;;;;;5013891;28;20176;-83
2024/03/26 11:35:58;;;;;;;6.90;3.17;;;14.60;99.90;;;;;;5012554;28;20174;-83
2024/03/26 11:38:24;;;;;;;7.73;3.33;;;14.60;99.90;;;;;;5013649;28;20179;-81
2024/03/26 11:40:51;;;;;;;6.67;3.60;;;14.60;99.90;;;;;;5014065;28;20647;-82
2024/03/26 11:43:18;;;;;;;6.70;3.63;;;14.70;99.90;;;;;;5013276;28;20185;-82
2024/03/26 11:45:44;;;;;;;7.57;3.20;;;14.80;99.90;;;;;;5012261;28;20206;-84
2024/03/26 11:48:10;;;;;;;6.73;3.57;;;15.00;99.90;;;;;;5013261;28;20171;-82
2024/03/26 11:50:37;;;;;;;4.50;2.90;;;15.20;99.90;;;;;;5013242;28;20256;-83
2024/03/26 11:53:03;;;;;;;6.77;3.13;;;15.10;99.90;;;;;;5011336;28;20213;-83
2024/03/26 11:55:29;;;;;;;6.50;3.07;;;15.20;99.90;;;;;;5011057;28;20185;-83
2024/03/26 11:57:55;;;;;;;5.83;3.27;;;15.10;99.90;;;;;;5013777;28;20246;-84
2024/03/26 12:00:24;;;;;;;8.17;3.00;;;14.90;99.90;;;;;;5011619;28;20237;-84
2024/03/26 12:02:51;;;;;;;5.90;3.17;;;15.00;99.90;;;;;;5013033;28;20229;-85
2024/03/26 12:05:16;;;;;;;5.27;3.17;;;14.80;99.90;;;;;;5012148;28;20595;-84
2024/03/26 12:07:43;;;;;;;11.57;3.63;;;14.80;99.90;;;;;;5013495;28;20213;-83
2024/03/26 12:10:10;;;;;;;9.03;3.73;;;14.90;99.90;;;;;;5013098;28;20170;-82
2024/03/26 12:12:38;;;;;;;7.53;3.50;;;14.90;99.90;;;;;;5013018;28;20205;-84
2024/03/26 12:15:12;;;;;;;10.07;3.40;;;15.20;99.90;;;;;;5013881;28;20639;-85
2024/03/26 12:17:40;;;;;;;6.23;3.27;;;15.60;99.90;;;;;;5012222;28;20204;-84
2024/03/26 12:20:09;;;;;;;7.07;3.13;;;15.60;99.90;;;;;;5012446;28;20166;-85
2024/03/26 12:22:35;;;;;;;6.07;3.43;;;15.50;99.90;;;;;;5012308;28;20180;-84
2024/03/26 12:25:08;;;;;;;6.27;3.17;;;15.60;99.90;;;;;;5007242;28;20540;-84
2024/03/26 12:27:34;;;;;;;9.80;3.47;;;15.40;99.90;;;;;;4994819;28;20179;-84
2024/03/26 12:30:01;;;;;;;7.07;3.10;;;15.70;99.90;;;;;;4992852;28;20174;-82
2024/03/26 12:32:27;;;;;;;5.47;3.43;;;15.80;99.90;;;;;;4992915;28;20175;-84
2024/03/26 12:34:58;;;;;;;6.10;3.57;;;15.90;99.90;;;;;;4993713;28;20185;-82
2024/03/26 12:37:27;;;;;;;10.00;3.20;;;16.10;99.90;;;;;;4994587;28;20492;-84
2024/03/26 12:39:53;;;;;;;11.50;3.80;;;16.30;87.40;;;;;;4995377;28;20174;-83
2024/03/26 12:42:18;;;;;;;7.83;3.10;;;16.40;96.70;;;;;;4995990;28;20609;-83
2024/03/26 12:44:44;;;;;;;7.50;3.70;;;16.50;71.80;;;;;;4996870;28;20211;-85
2024/03/26 12:47:10;;;;;;;10.53;5.13;;;16.60;27.30;;;;;;4995917;28;20595;-81
2024/03/26 12:49:35;;;;;;;8.57;5.17;;;16.50;1.00;;;;;;5007323;28;20258;-86